Time;durP1;ratioP1;P1;durP2;ratioP2;P2;SDS_P1;SDS_P2;PMS_P1;PMS_P2;Temp;Humidity;BMP_temperature;BMP_pressure;BME280_temperature;BME280_humidity;BME280_pressure;Samples;Min_cycle;Max_cycle;Signal;HPM_P1;HPM_P2
2024/01/26 00:01:42;;;;;;;4.80;2.53;;;6.80;99.90;;;;;;4986783;28;20319;-57
2024/01/26 00:04:08;;;;;;;3.40;2.37;;;6.80;99.90;;;;;;4983274;28;20437;-57
2024/01/26 00:06:33;;;;;;;2.63;2.33;;;6.80;99.90;;;;;;4988224;28;20268;-57
2024/01/26 00:09:10;;;;;;;3.57;2.43;;;6.80;99.90;;;;;;4987793;28;20197;-57
2024/01/26 00:11:36;;;;;;;3.03;2.63;;;6.80;99.90;;;;;;4984179;28;20192;-58
2024/01/26 00:14:02;;;;;;;5.90;2.27;;;6.70;99.90;;;;;;4987797;28;20427;-58
2024/01/26 00:16:28;;;;;;;2.60;2.20;;;6.70;99.90;;;;;;4983576;28;20475;-58
2024/01/26 00:18:53;;;;;;;2.43;2.23;;;6.70;99.90;;;;;;4981318;28;20201;-57
2024/01/26 00:21:19;;;;;;;4.13;2.00;;;6.60;99.90;;;;;;4988917;28;20212;-58
2024/01/26 00:23:44;;;;;;;2.27;1.70;;;6.50;99.90;;;;;;4990493;28;20181;-57
2024/01/26 00:26:12;;;;;;;2.20;2.00;;;6.50;99.90;;;;;;4985565;28;20177;-58
2024/01/26 00:28:38;;;;;;;3.30;1.90;;;6.40;99.90;;;;;;4984371;28;20279;-58
2024/01/26 00:31:04;;;;;;;2.07;1.90;;;6.40;99.90;;;;;;4986362;28;20888;-57
2024/01/26 00:33:29;;;;;;;2.30;2.10;;;6.30;99.90;;;;;;4986536;28;20192;-58
2024/01/26 00:35:55;;;;;;;3.43;2.03;;;6.30;99.90;;;;;;4985130;28;20205;-58
2024/01/26 00:38:21;;;;;;;3.57;2.10;;;6.30;99.90;;;;;;4987599;28;20212;-58
2024/01/26 00:40:47;;;;;;;3.27;1.73;;;6.30;99.90;;;;;;4988242;28;20179;-57
2024/01/26 00:43:13;;;;;;;3.33;1.97;;;6.30;99.90;;;;;;4989115;28;20933;-58
2024/01/26 00:45:39;;;;;;;2.77;2.40;;;6.30;99.90;;;;;;4985824;28;20716;-58
2024/01/26 00:48:05;;;;;;;3.00;2.70;;;6.30;99.90;;;;;;4988226;28;20215;-57
2024/01/26 00:50:31;;;;;;;3.40;3.10;;;6.30;99.90;;;;;;4987110;28;20674;-57
2024/01/26 00:52:57;;;;;;;9.23;3.07;;;6.30;99.90;;;;;;4985092;28;21168;-57
2024/01/26 00:55:23;;;;;;;1.73;1.60;;;6.30;99.90;;;;;;4984648;28;21131;-58
2024/01/26 00:57:49;;;;;;;2.70;1.73;;;6.20;99.90;;;;;;4987334;28;20428;-58
2024/01/26 01:00:15;;;;;;;1.50;1.40;;;6.20;99.90;;;;;;4989979;28;20181;-58
2024/01/26 01:02:40;;;;;;;1.13;1.03;;;6.10;99.90;;;;;;4988251;28;20575;-58
2024/01/26 01:05:06;;;;;;;1.90;1.80;;;6.10;99.90;;;;;;4984750;28;20455;-58
2024/01/26 01:07:32;;;;;;;2.40;1.80;;;6.00;99.90;;;;;;4985061;28;20555;-57
2024/01/26 01:09:58;;;;;;;3.00;1.37;;;5.90;99.90;;;;;;4990152;28;20256;-58
2024/01/26 01:12:23;;;;;;;2.00;1.90;;;5.90;99.90;;;;;;4981095;28;20268;-57
2024/01/26 01:14:49;;;;;;;3.10;2.43;;;5.80;99.90;;;;;;4987200;28;20181;-57
2024/01/26 01:17:14;;;;;;;4.00;3.07;;;5.70;99.90;;;;;;4987722;28;20215;-58
2024/01/26 01:19:40;;;;;;;3.33;2.63;;;5.80;99.90;;;;;;4987893;28;20280;-55
2024/01/26 01:22:06;;;;;;;3.20;2.67;;;5.80;99.90;;;;;;4986915;28;20648;-57
2024/01/26 01:24:31;;;;;;;2.67;2.40;;;5.80;99.90;;;;;;4982055;28;20173;-57
2024/01/26 01:26:57;;;;;;;4.10;2.70;;;5.80;99.90;;;;;;4981943;28;20220;-58
2024/01/26 01:29:22;;;;;;;3.37;2.97;;;5.90;99.90;;;;;;4981484;28;20287;-58
2024/01/26 01:31:48;;;;;;;5.80;3.30;;;5.90;99.90;;;;;;4984623;28;20247;-58
2024/01/26 01:34:14;;;;;;;4.03;2.80;;;6.00;99.90;;;;;;4985439;28;20228;-57
2024/01/26 01:36:39;;;;;;;4.97;3.00;;;6.10;99.90;;;;;;4986855;28;20644;-58
2024/01/26 01:39:07;;;;;;;3.50;3.20;;;6.10;99.90;;;;;;4985622;28;20197;-58
2024/01/26 01:41:33;;;;;;;6.37;3.70;;;6.20;99.90;;;;;;4986673;28;20693;-57
2024/01/26 01:43:59;;;;;;;5.87;4.07;;;6.20;99.90;;;;;;4988826;28;20419;-58
2024/01/26 01:46:25;;;;;;;4.27;3.27;;;6.20;99.90;;;;;;4982988;28;20197;-57
2024/01/26 01:48:51;;;;;;;4.80;3.40;;;6.10;99.90;;;;;;4984045;28;20503;-58
2024/01/26 01:51:17;;;;;;;3.00;2.70;;;6.10;99.90;;;;;;4983667;28;20558;-57
2024/01/26 01:53:43;;;;;;;6.00;2.10;;;6.10;99.90;;;;;;4984664;28;20432;-57
2024/01/26 01:56:11;;;;;;;4.23;2.37;;;6.10;99.90;;;;;;4985197;28;20472;-58
2024/01/26 01:58:41;;;;;;;2.07;1.90;;;6.10;99.90;;;;;;4985156;28;20216;-58
2024/01/26 02:01:07;;;;;;;3.10;2.67;;;6.10;99.90;;;;;;4987605;28;20440;-58
2024/01/26 02:03:33;;;;;;;2.80;1.90;;;6.10;99.90;;;;;;4985750;28;20617;-57
2024/01/26 02:05:58;;;;;;;4.90;1.30;;;6.10;99.90;;;;;;4982874;28;21016;-58
2024/01/26 02:08:24;;;;;;;1.60;1.50;;;6.10;99.90;;;;;;4988317;28;20216;-58
2024/01/26 02:10:49;;;;;;;2.00;1.90;;;6.00;99.90;;;;;;4982505;28;20208;-57
2024/01/26 02:13:15;;;;;;;2.20;1.70;;;6.00;99.90;;;;;;4986618;28;20181;-58
2024/01/26 02:15:41;;;;;;;2.23;2.03;;;6.00;99.90;;;;;;4982724;28;20201;-58
2024/01/26 02:18:07;;;;;;;2.40;2.20;;;6.00;99.90;;;;;;4980938;28;20337;-58
2024/01/26 02:20:32;;;;;;;2.50;2.27;;;6.00;99.90;;;;;;4988187;28;20177;-56
2024/01/26 02:22:58;;;;;;;2.50;2.10;;;6.00;99.90;;;;;;4979965;28;20170;-58
2024/01/26 02:25:23;;;;;;;3.10;2.50;;;6.00;99.90;;;;;;4986748;28;20177;-58
2024/01/26 02:27:52;;;;;;;2.70;2.50;;;5.90;99.90;;;;;;4981125;28;20311;-58
2024/01/26 02:30:18;;;;;;;2.57;1.70;;;5.80;99.90;;;;;;4983855;28;20192;-58
2024/01/26 02:32:44;;;;;;;1.70;1.53;;;5.80;99.90;;;;;;4986673;28;20459;-57
2024/01/26 02:35:10;;;;;;;2.40;1.37;;;5.80;99.90;;;;;;4987297;28;20558;-59
2024/01/26 02:37:36;;;;;;;1.40;1.30;;;5.80;99.90;;;;;;4986866;28;20180;-57
2024/01/26 02:40:02;;;;;;;1.00;1.00;;;5.80;99.90;;;;;;4979954;28;20449;-58
2024/01/26 02:42:27;;;;;;;2.00;1.17;;;5.80;99.90;;;;;;4987210;28;20600;-57
2024/01/26 02:44:53;;;;;;;1.03;1.03;;;5.80;99.90;;;;;;4982488;28;20173;-58
2024/01/26 02:47:18;;;;;;;1.33;1.00;;;5.90;99.90;;;;;;4984755;28;20181;-58
2024/01/26 02:49:44;;;;;;;1.30;1.20;;;5.90;99.90;;;;;;4986531;28;20193;-57
2024/01/26 02:52:10;;;;;;;0.80;0.80;;;6.00;99.90;;;;;;4984853;28;20181;-58
2024/01/26 02:54:35;;;;;;;1.60;1.10;;;6.00;99.90;;;;;;4985812;28;20540;-58
2024/01/26 02:57:01;;;;;;;1.30;1.20;;;6.10;99.90;;;;;;4983312;28;20208;-57
2024/01/26 02:59:26;;;;;;;1.23;1.13;;;6.10;99.90;;;;;;4981454;28;20956;-58
2024/01/26 03:01:52;;;;;;;2.23;1.00;;;6.20;99.90;;;;;;4981879;28;20239;-57
2024/01/26 03:04:21;;;;;;;1.10;1.10;;;6.20;99.90;;;;;;4987405;28;20216;-58
2024/01/26 03:06:47;;;;;;;5.37;1.33;;;6.30;99.90;;;;;;4986520;28;20191;-58
2024/01/26 03:09:13;;;;;;;2.50;1.40;;;6.30;99.90;;;;;;4984053;28;20456;-58
2024/01/26 03:11:41;;;;;;;1.83;1.40;;;6.30;99.90;;;;;;4984554;28;20818;-57
2024/01/26 03:14:07;;;;;;;1.23;1.10;;;6.30;99.90;;;;;;4980472;28;20484;-58
2024/01/26 03:16:34;;;;;;;2.23;1.23;;;6.30;99.90;;;;;;4985546;28;20495;-57
2024/01/26 03:18:59;;;;;;;1.73;1.50;;;6.30;99.90;;;;;;4982971;28;20506;-57
2024/01/26 03:21:26;;;;;;;3.50;1.23;;;6.30;99.90;;;;;;4982319;28;20432;-58
2024/01/26 03:23:51;;;;;;;2.87;1.20;;;6.30;99.90;;;;;;4980583;28;20566;-57
2024/01/26 03:26:17;;;;;;;2.07;1.70;;;6.20;99.90;;;;;;4983558;28;20942;-58
2024/01/26 03:28:42;;;;;;;1.40;1.00;;;6.30;99.90;;;;;;4983063;28;20212;-58
2024/01/26 03:31:08;;;;;;;3.47;1.60;;;6.30;99.90;;;;;;4982975;28;20209;-57
2024/01/26 03:33:34;;;;;;;1.20;1.07;;;6.30;99.90;;;;;;4985380;28;20629;-57
2024/01/26 03:35:59;;;;;;;1.30;1.10;;;6.30;99.90;;;;;;4984742;28;20209;-57
2024/01/26 03:38:25;;;;;;;1.43;1.33;;;6.30;99.90;;;;;;4986516;28;20201;-58
2024/01/26 03:40:50;;;;;;;1.60;1.50;;;6.30;99.90;;;;;;4985407;28;20179;-57
2024/01/26 03:43:16;;;;;;;1.43;1.33;;;6.30;99.90;;;;;;4979534;28;20614;-57
2024/01/26 03:45:42;;;;;;;2.90;1.50;;;6.20;99.90;;;;;;4981496;28;20216;-58
2024/01/26 03:48:07;;;;;;;1.83;1.73;;;6.20;99.90;;;;;;4984541;28;20231;-57
2024/01/26 03:50:33;;;;;;;2.40;1.63;;;6.20;99.90;;;;;;4982629;28;20209;-57
2024/01/26 03:52:59;;;;;;;1.60;1.50;;;6.10;99.90;;;;;;4987349;28;20181;-57
2024/01/26 03:55:25;;;;;;;2.70;1.50;;;6.00;99.90;;;;;;4985909;28;20486;-58
2024/01/26 03:57:50;;;;;;;1.53;1.43;;;6.00;99.90;;;;;;4983911;28;20356;-57
2024/01/26 04:00:16;;;;;;;1.50;1.40;;;6.00;99.90;;;;;;4979678;28;20180;-57
2024/01/26 04:02:42;;;;;;;1.63;1.53;;;6.00;99.90;;;;;;4982857;28;20184;-58
2024/01/26 04:05:08;;;;;;;1.50;1.40;;;6.00;99.90;;;;;;4985939;28;20818;-58
2024/01/26 04:07:35;;;;;;;2.00;1.60;;;6.00;99.90;;;;;;4979567;28;20239;-58
2024/01/26 04:10:01;;;;;;;2.00;1.80;;;6.00;99.90;;;;;;4984775;28;20455;-58
2024/01/26 04:12:26;;;;;;;2.07;1.67;;;6.00;99.90;;;;;;4991384;28;20512;-58
2024/01/26 04:14:52;;;;;;;2.00;1.90;;;6.00;99.90;;;;;;4984884;28;20531;-58
2024/01/26 04:17:17;;;;;;;2.83;2.00;;;6.00;99.90;;;;;;4985848;28;20225;-57
2024/01/26 04:19:43;;;;;;;1.80;1.70;;;6.00;99.90;;;;;;4984050;28;20683;-58
2024/01/26 04:22:09;;;;;;;2.07;1.80;;;6.00;99.90;;;;;;4990398;28;20178;-58
2024/01/26 04:24:35;;;;;;;1.83;1.70;;;6.00;99.90;;;;;;4987423;28;20562;-58
2024/01/26 04:27:00;;;;;;;2.03;1.80;;;6.00;99.90;;;;;;4986711;28;20260;-58
2024/01/26 04:29:26;;;;;;;2.73;1.77;;;6.00;99.90;;;;;;4982666;28;20223;-58
2024/01/26 04:31:52;;;;;;;1.83;1.60;;;6.00;99.90;;;;;;4989155;28;20180;-58
2024/01/26 04:34:17;;;;;;;3.40;2.10;;;5.90;99.90;;;;;;4987218;28;20184;-57
2024/01/26 04:36:47;;;;;;;2.57;2.13;;;5.90;99.90;;;;;;4987039;28;20205;-58
2024/01/26 04:39:13;;;;;;;1.90;1.60;;;6.00;99.90;;;;;;4988634;28;20259;-57
2024/01/26 04:41:39;;;;;;;1.97;1.70;;;6.00;99.90;;;;;;4989785;28;20451;-57
2024/01/26 04:44:06;;;;;;;2.87;2.30;;;6.00;99.90;;;;;;4988095;28;20510;-57
2024/01/26 04:46:31;;;;;;;4.90;2.13;;;6.00;99.90;;;;;;4989331;28;20516;-57
2024/01/26 04:48:57;;;;;;;1.67;1.57;;;6.00;99.90;;;;;;4988559;28;20909;-57
2024/01/26 04:51:23;;;;;;;2.50;1.60;;;6.10;99.90;;;;;;4983038;28;20185;-58
2024/01/26 04:53:48;;;;;;;2.37;1.67;;;6.10;99.90;;;;;;4984803;28;20177;-58
2024/01/26 04:56:14;;;;;;;1.90;1.77;;;6.10;99.90;;;;;;4983061;28;20225;-57
2024/01/26 04:58:40;;;;;;;2.70;1.77;;;6.10;99.90;;;;;;4984060;28;20551;-56
2024/01/26 05:01:06;;;;;;;1.93;1.77;;;6.10;99.90;;;;;;4982273;28;20244;-56
2024/01/26 05:03:32;;;;;;;2.10;1.90;;;6.20;99.90;;;;;;4988526;28;20420;-57
2024/01/26 05:05:58;;;;;;;2.40;1.97;;;6.20;99.90;;;;;;5002269;28;20767;-62
2024/01/26 05:08:24;;;;;;;2.03;1.70;;;6.20;99.90;;;;;;4985901;28;20197;-62
2024/01/26 05:10:49;;;;;;;1.80;1.70;;;6.20;99.90;;;;;;4969641;28;20174;-62
2024/01/26 05:13:15;;;;;;;2.33;2.00;;;6.30;99.90;;;;;;4979564;28;20189;-61
2024/01/26 05:15:41;;;;;;;8.00;2.60;;;6.30;99.90;;;;;;4969348;28;20768;-62
2024/01/26 05:18:08;;;;;;;2.30;2.10;;;6.30;99.90;;;;;;4976484;28;20519;-62
2024/01/26 05:20:34;;;;;;;3.40;1.83;;;6.30;99.90;;;;;;4983968;28;20165;-62
2024/01/26 05:22:59;;;;;;;1.60;1.50;;;6.30;99.90;;;;;;4983412;28;20979;-62
2024/01/26 05:25:25;;;;;;;4.77;2.30;;;6.30;99.90;;;;;;4982786;28;21084;-63
2024/01/26 05:27:50;;;;;;;6.23;2.20;;;6.30;99.90;;;;;;4981323;28;20245;-62
2024/01/26 05:30:16;;;;;;;2.80;2.10;;;6.30;99.90;;;;;;4983835;28;20617;-62
2024/01/26 05:32:43;;;;;;;3.33;1.93;;;6.30;99.90;;;;;;4983011;28;20178;-61
2024/01/26 05:35:09;;;;;;;1.90;1.80;;;6.30;99.90;;;;;;4982124;28;20205;-61
2024/01/26 05:37:35;;;;;;;3.57;2.23;;;6.30;99.90;;;;;;4985493;28;21108;-58
2024/01/26 05:40:07;;;;;;;4.00;2.30;;;6.30;99.90;;;;;;4980650;28;21199;-61
2024/01/26 05:42:33;;;;;;;2.60;2.40;;;6.30;99.90;;;;;;4981503;28;20991;-61
2024/01/26 05:45:00;;;;;;;6.90;4.53;;;6.30;99.90;;;;;;4998613;28;20441;-61
2024/01/26 05:47:25;;;;;;;4.87;2.80;;;6.30;99.90;;;;;;4983335;28;20424;-61
2024/01/26 05:49:51;;;;;;;7.17;3.70;;;6.30;99.90;;;;;;4985751;28;20452;-61
2024/01/26 05:52:17;;;;;;;2.60;1.90;;;6.30;99.90;;;;;;4985056;28;20699;-61
2024/01/26 05:54:42;;;;;;;2.57;1.83;;;6.30;99.90;;;;;;4987947;28;20216;-61
2024/01/26 05:57:08;;;;;;;2.80;2.20;;;6.40;99.90;;;;;;4984692;28;20279;-61
2024/01/26 05:59:37;;;;;;;2.57;2.03;;;6.40;99.90;;;;;;4986182;28;20259;-61
2024/01/26 06:02:03;;;;;;;3.33;2.70;;;6.40;99.90;;;;;;4989385;28;20802;-61
2024/01/26 06:04:31;;;;;;;2.17;1.97;;;6.40;99.90;;;;;;4988099;28;20973;-61
2024/01/26 06:06:57;;;;;;;3.00;2.33;;;6.30;99.90;;;;;;4982085;28;20946;-61
2024/01/26 06:09:22;;;;;;;6.10;3.50;;;6.30;99.90;;;;;;4986944;28;20555;-61
2024/01/26 06:11:48;;;;;;;8.80;3.97;;;6.30;99.90;;;;;;4984710;28;20256;-61
2024/01/26 06:14:13;;;;;;;5.10;3.13;;;6.30;99.90;;;;;;4982981;28;20173;-61
2024/01/26 06:16:39;;;;;;;4.40;2.80;;;6.30;99.90;;;;;;4986243;28;20233;-61
2024/01/26 06:19:05;;;;;;;2.50;2.10;;;6.30;99.90;;;;;;4980145;28;20729;-61
2024/01/26 06:21:30;;;;;;;2.43;2.20;;;6.40;99.90;;;;;;4986657;28;20255;-61
2024/01/26 06:23:56;;;;;;;6.20;2.40;;;6.40;99.90;;;;;;4985780;28;20483;-61
2024/01/26 06:26:23;;;;;;;2.80;2.17;;;6.40;99.90;;;;;;4997590;28;20232;-61
2024/01/26 06:28:49;;;;;;;2.20;1.93;;;6.40;99.90;;;;;;4980642;28;20298;-62
2024/01/26 06:31:14;;;;;;;1.83;1.73;;;6.40;99.90;;;;;;4984020;28;21137;-62
2024/01/26 06:33:40;;;;;;;4.33;1.93;;;6.50;99.90;;;;;;4979821;28;20185;-61
2024/01/26 06:36:06;;;;;;;4.70;2.30;;;6.50;99.90;;;;;;4987161;28;20201;-60
2024/01/26 06:38:31;;;;;;;2.00;1.80;;;6.60;99.90;;;;;;4986392;28;20694;-61
2024/01/26 06:40:59;;;;;;;3.20;2.00;;;6.60;99.90;;;;;;4979424;28;20177;-61
2024/01/26 06:43:24;;;;;;;2.67;2.00;;;6.60;99.90;;;;;;4985659;28;20175;-61
2024/01/26 06:45:50;;;;;;;6.07;1.90;;;6.70;99.90;;;;;;4986558;28;20421;-61
2024/01/26 06:48:16;;;;;;;2.77;1.70;;;6.70;99.90;;;;;;4981383;28;20715;-61
2024/01/26 06:50:41;;;;;;;4.37;2.67;;;6.70;99.90;;;;;;4986283;28;20248;-61
2024/01/26 06:53:09;;;;;;;6.60;3.03;;;6.80;99.90;;;;;;4984886;28;20332;-61
2024/01/26 06:55:34;;;;;;;2.33;1.97;;;6.80;99.90;;;;;;4985434;28;20193;-60
2024/01/26 06:58:00;;;;;;;2.33;2.13;;;6.80;99.90;;;;;;4987272;28;20430;-61
2024/01/26 07:00:27;;;;;;;1.70;1.60;;;6.80;99.90;;;;;;4988358;28;20562;-61
2024/01/26 07:02:53;;;;;;;2.90;1.80;;;6.80;99.90;;;;;;4985220;28;20185;-61
2024/01/26 07:05:18;;;;;;;4.33;1.97;;;6.90;99.90;;;;;;4983361;28;20439;-61
2024/01/26 07:07:44;;;;;;;3.33;1.70;;;6.80;99.90;;;;;;4983628;28;20256;-61
2024/01/26 07:10:10;;;;;;;2.57;2.10;;;6.80;99.90;;;;;;4988141;28;20774;-61
2024/01/26 07:12:35;;;;;;;3.77;2.17;;;6.80;99.90;;;;;;4979222;28;20177;-61
2024/01/26 07:15:01;;;;;;;5.73;3.40;;;6.90;99.90;;;;;;4987710;28;20880;-61
2024/01/26 07:17:27;;;;;;;2.70;2.20;;;6.90;99.90;;;;;;4987158;28;20236;-61
2024/01/26 07:19:52;;;;;;;2.50;2.00;;;6.90;99.90;;;;;;4985021;28;20613;-61
2024/01/26 07:22:18;;;;;;;5.17;2.20;;;6.90;99.90;;;;;;4987697;28;20188;-61
2024/01/26 07:24:43;;;;;;;3.17;1.90;;;6.90;99.90;;;;;;4986634;28;20200;-61
2024/01/26 07:27:09;;;;;;;1.90;1.70;;;6.90;99.90;;;;;;4986237;28;20185;-62
2024/01/26 07:29:35;;;;;;;1.50;1.40;;;7.00;99.90;;;;;;4980944;28;20248;-61
2024/01/26 07:32:00;;;;;;;2.17;1.87;;;7.00;99.90;;;;;;4984799;28;20185;-61
2024/01/26 07:34:26;;;;;;;1.70;1.60;;;7.00;99.90;;;;;;4986050;28;20706;-61
2024/01/26 07:36:52;;;;;;;2.30;1.60;;;7.00;99.90;;;;;;4976276;28;20201;-62
2024/01/26 07:39:19;;;;;;;1.77;1.67;;;7.00;99.90;;;;;;4973973;28;20202;-61
2024/01/26 07:41:45;;;;;;;2.67;1.80;;;7.00;99.90;;;;;;4984852;28;20268;-61
2024/01/26 07:44:10;;;;;;;2.83;1.60;;;7.10;99.90;;;;;;4986543;28;21015;-61
2024/01/26 07:46:38;;;;;;;2.77;2.50;;;7.10;99.90;;;;;;4987067;28;20181;-61
2024/01/26 07:49:04;;;;;;;3.17;2.60;;;7.10;99.90;;;;;;4989408;28;20205;-62
2024/01/26 07:51:29;;;;;;;2.37;1.80;;;7.20;99.90;;;;;;4989662;28;20432;-61
2024/01/26 07:53:55;;;;;;;3.13;2.67;;;7.20;99.90;;;;;;4991274;28;20207;-61
2024/01/26 07:56:20;;;;;;;3.07;2.03;;;7.20;99.90;;;;;;4986395;28;20276;-61
2024/01/26 07:58:46;;;;;;;3.50;2.20;;;7.30;99.90;;;;;;4979697;28;20200;-61
2024/01/26 08:01:13;;;;;;;6.53;3.50;;;7.30;99.90;;;;;;4987298;28;20173;-61
2024/01/26 08:03:38;;;;;;;3.60;2.20;;;7.30;99.90;;;;;;5003305;28;20177;-61
2024/01/26 08:06:04;;;;;;;3.10;2.30;;;7.40;99.90;;;;;;4987203;28;20443;-61
2024/01/26 08:08:30;;;;;;;1.93;1.83;;;7.40;99.90;;;;;;4987195;28;20744;-61
2024/01/26 08:10:57;;;;;;;2.73;2.07;;;7.40;99.90;;;;;;4990068;28;20774;-62
2024/01/26 08:13:22;;;;;;;3.27;1.93;;;7.40;99.90;;;;;;4990913;28;20189;-61
2024/01/26 08:15:48;;;;;;;2.20;2.00;;;7.40;99.90;;;;;;4981793;28;21007;-61
2024/01/26 08:18:14;;;;;;;2.80;1.87;;;7.40;99.90;;;;;;4987576;28;20200;-61
2024/01/26 08:20:40;;;;;;;3.43;2.00;;;7.50;99.90;;;;;;4982527;28;20173;-61
2024/01/26 08:23:06;;;;;;;2.27;1.87;;;7.50;99.90;;;;;;4991194;28;20189;-59
2024/01/26 08:25:32;;;;;;;3.07;1.80;;;7.50;99.90;;;;;;4991034;28;20938;-61
2024/01/26 08:27:57;;;;;;;2.70;2.27;;;7.60;99.90;;;;;;4981826;28;20189;-61
2024/01/26 08:30:23;;;;;;;4.70;2.47;;;7.60;99.90;;;;;;4985248;28;20443;-61
2024/01/26 08:32:49;;;;;;;3.83;1.83;;;7.60;99.90;;;;;;4985832;28;20177;-62
2024/01/26 08:35:18;;;;;;;3.40;2.43;;;7.70;99.90;;;;;;4988364;28;20216;-60
2024/01/26 08:37:44;;;;;;;6.67;3.23;;;7.70;99.90;;;;;;4987516;28;20424;-60
2024/01/26 08:40:10;;;;;;;3.73;2.30;;;7.70;99.90;;;;;;4985076;28;21136;-61
2024/01/26 08:42:36;;;;;;;2.37;2.10;;;7.70;99.90;;;;;;4981938;28;20451;-60
2024/01/26 08:45:03;;;;;;;2.63;2.03;;;7.80;99.90;;;;;;4989595;28;20180;-60
2024/01/26 08:47:29;;;;;;;5.90;2.57;;;7.80;99.90;;;;;;4988964;28;22527;-61
2024/01/26 08:49:55;;;;;;;3.07;2.20;;;7.80;99.90;;;;;;4984989;28;20458;-60
2024/01/26 08:52:20;;;;;;;8.47;2.00;;;7.90;99.90;;;;;;4988611;28;20433;-60
2024/01/26 08:54:46;;;;;;;3.43;2.50;;;7.90;99.90;;;;;;4987693;28;20169;-61
2024/01/26 08:57:12;;;;;;;2.40;2.20;;;7.90;99.90;;;;;;4984738;28;20201;-60
2024/01/26 08:59:38;;;;;;;3.13;2.37;;;7.90;99.90;;;;;;4986693;28;20188;-59
2024/01/26 09:02:04;;;;;;;4.13;2.20;;;8.00;99.90;;;;;;4997876;28;20204;-60
2024/01/26 09:04:30;;;;;;;5.97;2.40;;;8.00;99.90;;;;;;4985672;28;20985;-59
2024/01/26 09:06:55;;;;;;;5.80;3.03;;;8.00;99.90;;;;;;4984306;28;20200;-60
2024/01/26 09:09:22;;;;;;;4.77;2.60;;;8.00;99.90;;;;;;4986366;28;20197;-61
2024/01/26 09:11:47;;;;;;;3.97;2.73;;;8.00;99.90;;;;;;4983746;28;20181;-60
2024/01/26 09:14:14;;;;;;;3.87;2.53;;;8.10;99.90;;;;;;4986105;28;20964;-61
2024/01/26 09:16:39;;;;;;;9.17;2.47;;;8.10;99.90;;;;;;4987646;28;20220;-60
2024/01/26 09:19:05;;;;;;;3.47;2.03;;;8.10;99.90;;;;;;4989944;28;20798;-61
2024/01/26 09:21:30;;;;;;;2.20;1.90;;;8.20;99.90;;;;;;4979984;28;20219;-61
2024/01/26 09:23:56;;;;;;;2.93;2.40;;;8.20;99.90;;;;;;4988085;28;20178;-60
2024/01/26 09:26:22;;;;;;;3.83;2.40;;;8.20;99.90;;;;;;4987952;28;20189;-60
2024/01/26 09:28:48;;;;;;;2.60;2.10;;;8.20;99.90;;;;;;4986176;28;20219;-61
2024/01/26 09:31:14;;;;;;;5.87;3.03;;;8.30;99.90;;;;;;4983151;28;20429;-61
2024/01/26 09:33:39;;;;;;;5.30;2.47;;;8.30;99.90;;;;;;4989091;28;20265;-60
2024/01/26 09:36:05;;;;;;;3.27;2.20;;;8.30;99.90;;;;;;4986867;28;20227;-60
2024/01/26 09:38:30;;;;;;;8.40;2.47;;;8.40;99.90;;;;;;4986528;28;20229;-60
2024/01/26 09:40:56;;;;;;;5.70;3.07;;;8.40;99.90;;;;;;4982471;28;20185;-60
2024/01/26 09:43:22;;;;;;;3.10;2.50;;;8.40;99.90;;;;;;4987272;28;20173;-61
2024/01/26 09:45:52;;;;;;;4.97;2.63;;;8.40;99.90;;;;;;4980272;28;20181;-61
2024/01/26 09:48:19;;;;;;;5.03;2.40;;;8.40;99.90;;;;;;4988602;28;20436;-60
2024/01/26 09:50:50;;;;;;;2.03;1.83;;;8.50;99.90;;;;;;4986718;28;20498;-61
2024/01/26 09:53:18;;;;;;;2.57;2.10;;;8.50;99.90;;;;;;4986953;28;20444;-60
2024/01/26 09:55:46;;;;;;;2.50;2.30;;;8.50;99.90;;;;;;4987509;28;20460;-61
2024/01/26 09:58:11;;;;;;;5.37;2.50;;;8.60;99.90;;;;;;4988757;28;20476;-60
2024/01/26 10:00:37;;;;;;;2.93;2.50;;;8.60;99.90;;;;;;4986492;28;20939;-60
2024/01/26 10:03:03;;;;;;;5.90;3.80;;;8.70;99.90;;;;;;4983119;28;20256;-61
2024/01/26 10:05:30;;;;;;;3.73;2.63;;;8.70;99.90;;;;;;4986942;28;20192;-60
2024/01/26 10:07:55;;;;;;;4.47;3.17;;;8.70;99.90;;;;;;4987299;28;20427;-60
2024/01/26 10:10:23;;;;;;;6.60;4.50;;;8.70;99.90;;;;;;4989559;28;20425;-60
2024/01/26 10:12:50;;;;;;;4.73;3.47;;;8.80;99.90;;;;;;4988048;28;20189;-60
2024/01/26 10:15:15;;;;;;;4.77;3.27;;;8.80;99.90;;;;;;4985805;28;20432;-61
2024/01/26 10:17:43;;;;;;;5.70;2.70;;;8.80;99.90;;;;;;4981828;28;20491;-59
2024/01/26 10:20:13;;;;;;;3.10;2.43;;;8.90;99.90;;;;;;4988984;28;20730;-61
2024/01/26 10:22:39;;;;;;;4.37;2.23;;;8.90;99.90;;;;;;4984062;28;20875;-60
2024/01/26 10:25:05;;;;;;;3.27;2.53;;;8.90;99.90;;;;;;4981861;28;20517;-60
2024/01/26 10:27:32;;;;;;;2.60;2.40;;;9.00;99.90;;;;;;4983264;28;20519;-61
2024/01/26 10:29:57;;;;;;;2.50;2.30;;;9.00;99.90;;;;;;4982091;28;20543;-61
2024/01/26 10:32:28;;;;;;;3.00;2.47;;;9.00;99.90;;;;;;4987527;28;20994;-60
2024/01/26 10:35:03;;;;;;;2.70;2.23;;;9.10;99.90;;;;;;4983970;28;20169;-60
2024/01/26 10:37:33;;;;;;;3.60;2.33;;;9.10;99.90;;;;;;4980684;28;20499;-61
2024/01/26 10:40:00;;;;;;;6.13;2.43;;;9.10;99.90;;;;;;4980671;28;20436;-61
2024/01/26 10:42:32;;;;;;;4.63;2.57;;;9.10;99.90;;;;;;4988740;28;20428;-60
2024/01/26 10:45:00;;;;;;;4.20;2.60;;;9.10;99.90;;;;;;4983913;28;20415;-61
2024/01/26 10:47:26;;;;;;;6.50;2.67;;;9.10;99.90;;;;;;4982718;28;20439;-60
2024/01/26 10:49:57;;;;;;;4.73;2.50;;;9.10;99.90;;;;;;4979927;28;21516;-61
2024/01/26 10:52:23;;;;;;;4.23;2.60;;;9.10;99.90;;;;;;4982576;28;20460;-61
2024/01/26 10:54:52;;;;;;;5.20;2.63;;;9.10;99.90;;;;;;4981549;28;20439;-60
2024/01/26 10:57:19;;;;;;;5.50;2.90;;;9.10;99.90;;;;;;4978066;28;20810;-60
2024/01/26 10:59:47;;;;;;;6.43;2.93;;;9.10;99.90;;;;;;4980385;28;21220;-61
2024/01/26 11:02:27;;;;;;;3.30;2.63;;;9.10;99.90;;;;;;4982669;28;20575;-61
2024/01/26 11:04:53;;;;;;;2.90;2.60;;;9.10;99.90;;;;;;4975502;28;20428;-60
2024/01/26 11:07:20;;;;;;;5.13;2.40;;;9.10;99.90;;;;;;4979169;28;20439;-59
2024/01/26 11:09:46;;;;;;;3.10;2.60;;;9.10;99.90;;;;;;4986302;28;20476;-60
2024/01/26 11:12:22;;;;;;;4.90;2.37;;;9.10;99.90;;;;;;4986915;28;20420;-60
2024/01/26 11:15:05;;;;;;;4.20;3.20;;;9.10;99.90;;;;;;4985742;28;20485;-61
2024/01/26 11:17:42;;;;;;;3.93;3.03;;;9.10;99.90;;;;;;4981355;28;20931;-61
2024/01/26 11:20:15;;;;;;;2.90;2.60;;;9.10;99.90;;;;;;4975433;28;20452;-60
2024/01/26 11:22:42;;;;;;;4.30;2.90;;;9.10;99.90;;;;;;4980006;28;20433;-60
2024/01/26 11:25:07;;;;;;;3.13;2.40;;;9.10;99.90;;;;;;4981198;28;20440;-60
2024/01/26 11:27:33;;;;;;;5.17;2.83;;;9.10;99.90;;;;;;4987336;28;20428;-61
2024/01/26 11:29:58;;;;;;;3.83;2.60;;;9.10;99.90;;;;;;4984654;28;20327;-61
2024/01/26 11:32:24;;;;;;;2.97;2.63;;;9.10;99.90;;;;;;4992423;28;20663;-61
2024/01/26 11:35:15;;;;;;;5.23;2.40;;;9.10;99.90;;;;;;4990410;28;20189;-60
2024/01/26 11:37:42;;;;;;;3.17;2.80;;;9.10;99.90;;;;;;4986172;28;20188;-60
2024/01/26 11:40:09;;;;;;;2.83;2.53;;;9.10;99.90;;;;;;4984440;28;20466;-61
2024/01/26 11:42:36;;;;;;;4.43;3.50;;;9.10;99.90;;;;;;4989866;28;20430;-60
2024/01/26 11:45:07;;;;;;;3.13;2.57;;;9.10;99.90;;;;;;4987628;28;20456;-60
2024/01/26 11:47:33;;;;;;;2.63;2.40;;;9.10;99.90;;;;;;4983371;28;20428;-59
2024/01/26 11:49:58;;;;;;;2.80;2.50;;;9.10;99.90;;;;;;4984222;28;20449;-60
2024/01/26 11:52:24;;;;;;;4.00;2.80;;;9.10;99.90;;;;;;4991357;28;20175;-61
2024/01/26 11:54:50;;;;;;;3.50;3.00;;;9.20;99.90;;;;;;4990084;28;20617;-61
2024/01/26 11:57:17;;;;;;;3.90;3.27;;;9.10;99.90;;;;;;4986659;28;20729;-61
2024/01/26 11:59:42;;;;;;;2.63;2.43;;;9.20;99.90;;;;;;4987849;28;20199;-60
2024/01/26 12:02:08;;;;;;;3.23;2.80;;;9.20;99.90;;;;;;4985622;28;20441;-60
2024/01/26 12:04:35;;;;;;;3.67;2.40;;;9.20;99.90;;;;;;4991574;28;20176;-60
2024/01/26 12:07:02;;;;;;;3.47;2.70;;;9.20;99.90;;;;;;4984705;28;20568;-60
2024/01/26 12:09:27;;;;;;;7.47;2.50;;;9.20;99.90;;;;;;4982941;28;20460;-60
2024/01/26 12:11:53;;;;;;;7.53;2.80;;;9.20;99.90;;;;;;4983854;28;20475;-60
2024/01/26 12:14:19;;;;;;;2.70;2.50;;;9.30;99.90;;;;;;4990391;28;20173;-60
2024/01/26 12:16:45;;;;;;;2.50;2.30;;;9.20;99.90;;;;;;4985585;28;20470;-60
2024/01/26 12:19:10;;;;;;;2.70;2.20;;;9.30;99.90;;;;;;4987719;28;20201;-60
2024/01/26 12:21:36;;;;;;;2.90;2.33;;;9.30;99.90;;;;;;4988247;28;20610;-60
2024/01/26 12:24:09;;;;;;;1.90;1.70;;;9.30;99.90;;;;;;4987081;28;20253;-60
2024/01/26 12:26:35;;;;;;;3.10;2.80;;;9.30;99.90;;;;;;4989271;28;20459;-60
2024/01/26 12:29:01;;;;;;;2.77;2.00;;;9.40;99.90;;;;;;4982943;28;20479;-60
2024/01/26 12:31:28;;;;;;;3.00;1.73;;;9.40;99.90;;;;;;4988169;28;21019;-61
2024/01/26 12:33:54;;;;;;;3.30;2.37;;;9.40;99.90;;;;;;4989015;28;20196;-60
2024/01/26 12:36:19;;;;;;;8.23;2.20;;;9.40;99.90;;;;;;4988412;28;20459;-60
2024/01/26 12:38:45;;;;;;;2.57;1.70;;;9.50;99.90;;;;;;4988282;28;20205;-60
2024/01/26 12:41:10;;;;;;;2.67;2.47;;;9.50;99.90;;;;;;4983933;28;20170;-60
2024/01/26 12:43:36;;;;;;;2.20;2.00;;;9.50;99.90;;;;;;4990334;28;20173;-60
2024/01/26 12:46:04;;;;;;;2.40;2.10;;;9.50;99.90;;;;;;4986589;28;20259;-61
2024/01/26 12:48:30;;;;;;;2.17;2.00;;;9.50;99.90;;;;;;4989864;28;20703;-60
2024/01/26 12:50:56;;;;;;;8.03;2.43;;;9.50;99.90;;;;;;4983386;28;20436;-61
2024/01/26 12:53:22;;;;;;;3.93;2.30;;;9.50;99.90;;;;;;4983210;28;20531;-59